Time;durP1;ratioP1;P1;durP2;ratioP2;P2;SDS_P1;SDS_P2;PMS_P1;PMS_P2;Temp;Humidity;BMP_temperature;BMP_pressure;BME280_temperature;BME280_humidity;BME280_pressure;Samples;Min_cycle;Max_cycle;Signal;HPM_P1;HPM_P2
2021/08/28 00:01:37;;;;;;;6.87;5.93;;;17.20;98.30;;;;;;4078722;29;20492;-81
2021/08/28 00:03:41;;;;;;;6.20;5.53;;;17.20;98.30;;;;;;4091379;29;21131;-81
2021/08/28 00:05:44;;;;;;;6.53;5.90;;;17.20;98.30;;;;;;4092768;29;20466;-81
2021/08/28 00:07:49;;;;;;;6.60;5.87;;;17.20;98.30;;;;;;4077673;29;20521;-81
2021/08/28 00:09:52;;;;;;;6.47;5.80;;;17.20;98.30;;;;;;4083481;28;20559;-81
2021/08/28 00:11:55;;;;;;;6.40;5.80;;;17.20;98.30;;;;;;4091393;29;20480;-81
2021/08/28 00:13:58;;;;;;;5.80;5.20;;;17.20;98.30;;;;;;4085977;28;20506;-81
2021/08/28 00:16:01;;;;;;;8.73;5.23;;;17.20;98.30;;;;;;4091469;29;20481;-81
2021/08/28 00:18:04;;;;;;;5.73;5.10;;;17.20;98.30;;;;;;4088320;29;20477;-81
2021/08/28 00:20:09;;;;;;;5.70;5.03;;;17.20;98.30;;;;;;4093148;29;20473;-81
2021/08/28 00:22:12;;;;;;;5.57;5.07;;;17.20;98.30;;;;;;4093788;29;20474;-81
2021/08/28 00:24:17;;;;;;;5.80;4.90;;;17.20;98.30;;;;;;4098677;28;20494;-81
2021/08/28 00:26:20;;;;;;;5.33;4.83;;;17.20;98.30;;;;;;4100753;28;20473;-81
2021/08/28 00:28:22;;;;;;;5.60;5.10;;;17.10;98.30;;;;;;4100657;28;20474;-81
2021/08/28 00:30:26;;;;;;;5.33;4.83;;;17.20;98.30;;;;;;4099400;29;20462;-81
2021/08/28 00:32:29;;;;;;;7.10;5.47;;;17.20;98.30;;;;;;4098025;28;20773;-81
2021/08/28 00:34:31;;;;;;;5.93;4.50;;;17.20;98.30;;;;;;4099009;28;20564;-81
2021/08/28 00:36:34;;;;;;;6.93;5.90;;;17.10;98.30;;;;;;4097204;29;20529;-81
2021/08/28 00:38:37;;;;;;;5.30;4.80;;;17.10;98.30;;;;;;4093001;29;20541;-81
2021/08/28 00:40:42;;;;;;;4.90;4.50;;;17.10;98.30;;;;;;4092947;28;20490;-81
2021/08/28 00:42:50;;;;;;;4.63;4.23;;;17.10;98.30;;;;;;4094544;28;20472;-81
2021/08/28 00:44:54;;;;;;;4.80;4.30;;;17.10;98.30;;;;;;4090287;28;20563;-81
2021/08/28 00:46:57;;;;;;;4.87;4.37;;;17.00;98.30;;;;;;4098963;29;20535;-81
2021/08/28 00:49:00;;;;;;;5.20;4.30;;;17.00;98.30;;;;;;4093148;28;20487;-80
2021/08/28 00:51:04;;;;;;;5.90;4.90;;;17.00;98.30;;;;;;4095848;29;20478;-81
2021/08/28 00:53:08;;;;;;;5.80;4.93;;;17.00;98.30;;;;;;4089608;29;20840;-81
2021/08/28 00:55:11;;;;;;;5.30;4.80;;;17.00;98.30;;;;;;4087496;29;20473;-81
2021/08/28 00:57:17;;;;;;;5.03;4.53;;;17.00;98.30;;;;;;4081123;29;21046;-81
2021/08/28 00:59:20;;;;;;;5.63;4.53;;;17.00;98.30;;;;;;4089326;29;20950;-81
2021/08/28 01:01:26;;;;;;;5.03;4.33;;;17.00;98.30;;;;;;4096248;28;20504;-81
2021/08/28 01:03:34;;;;;;;4.70;3.80;;;17.00;98.30;;;;;;4090206;28;20924;-81
2021/08/28 01:05:47;;;;;;;7.00;4.47;;;17.00;98.30;;;;;;4084379;28;20470;-81
2021/08/28 01:08:00;;;;;;;4.33;3.93;;;17.00;98.30;;;;;;4092290;29;20553;-82
2021/08/28 01:10:06;;;;;;;4.70;4.20;;;17.00;98.30;;;;;;4082492;28;20488;-82
2021/08/28 01:12:17;;;;;;;4.40;4.00;;;17.10;98.30;;;;;;4087784;28;20554;-81
2021/08/28 01:14:24;;;;;;;3.97;3.67;;;17.10;98.30;;;;;;4083657;28;20494;-81
2021/08/28 01:16:28;;;;;;;4.63;3.80;;;17.00;98.30;;;;;;4084760;28;20472;-81
2021/08/28 01:18:31;;;;;;;4.00;3.67;;;16.90;98.30;;;;;;4081689;29;20480;-81
2021/08/28 01:20:42;;;;;;;4.20;3.80;;;16.80;98.30;;;;;;4093093;28;20509;-80
2021/08/28 01:22:46;;;;;;;4.20;3.70;;;16.80;98.30;;;;;;4088293;29;20559;-80
2021/08/28 01:24:49;;;;;;;4.20;3.63;;;16.80;98.30;;;;;;4079184;28;20617;-80
2021/08/28 01:26:58;;;;;;;4.10;3.80;;;16.90;98.30;;;;;;4085572;28;20473;-80
2021/08/28 01:29:14;;;;;;;4.70;3.80;;;16.90;98.30;;;;;;4093277;28;20485;-81
2021/08/28 01:31:18;;;;;;;4.90;4.40;;;16.80;98.30;;;;;;4092994;28;20480;-80
2021/08/28 01:33:23;;;;;;;3.83;3.47;;;16.80;98.30;;;;;;4090965;28;21031;-80
2021/08/28 01:35:26;;;;;;;3.90;3.50;;;16.70;98.30;;;;;;4089985;29;20473;-80
2021/08/28 01:37:29;;;;;;;4.03;3.63;;;16.80;98.30;;;;;;4086199;29;20473;-80
2021/08/28 01:39:33;;;;;;;4.97;4.00;;;16.80;98.30;;;;;;4091467;29;20884;-81
2021/08/28 01:41:38;;;;;;;5.77;4.30;;;16.80;98.30;;;;;;4095556;29;21062;-81
2021/08/28 01:43:42;;;;;;;5.17;4.40;;;16.80;98.30;;;;;;4086499;29;20485;-81
2021/08/28 01:45:49;;;;;;;4.80;4.23;;;16.80;98.30;;;;;;4093444;29;20548;-81
2021/08/28 01:47:53;;;;;;;4.30;3.90;;;16.90;98.30;;;;;;4089125;28;21032;-80
2021/08/28 01:49:56;;;;;;;4.50;4.10;;;16.90;98.30;;;;;;4086190;29;20476;-80
2021/08/28 01:51:59;;;;;;;4.60;4.10;;;17.00;98.30;;;;;;4092100;29;20825;-80
2021/08/28 01:54:02;;;;;;;4.67;4.20;;;17.00;98.30;;;;;;4089196;29;20500;-80
2021/08/28 01:56:06;;;;;;;5.23;4.23;;;17.00;98.30;;;;;;4093521;28;20473;-81
2021/08/28 01:58:09;;;;;;;4.50;4.10;;;17.00;98.30;;;;;;4085836;29;20481;-81
2021/08/28 02:00:13;;;;;;;3.83;3.53;;;17.00;98.30;;;;;;4095424;28;20560;-80
2021/08/28 02:02:17;;;;;;;4.33;3.93;;;17.00;98.30;;;;;;4092171;28;20491;-81
2021/08/28 02:04:20;;;;;;;4.83;4.10;;;17.00;98.30;;;;;;4084819;28;20612;-80
2021/08/28 02:06:28;;;;;;;5.00;4.50;;;17.00;98.30;;;;;;4089539;28;20898;-81
2021/08/28 02:08:38;;;;;;;4.50;4.10;;;16.80;98.30;;;;;;4091205;28;21032;-81
2021/08/28 02:10:50;;;;;;;4.60;4.20;;;16.60;98.30;;;;;;4093261;29;20478;-81
2021/08/28 02:12:57;;;;;;;4.70;4.20;;;16.50;98.30;;;;;;4090199;28;20473;-81
2021/08/28 02:15:06;;;;;;;4.80;4.30;;;16.30;98.30;;;;;;4094860;29;21047;-81
2021/08/28 02:17:10;;;;;;;4.37;3.97;;;16.30;98.30;;;;;;4081408;29;20467;-81
2021/08/28 02:19:19;;;;;;;4.97;4.30;;;16.40;98.30;;;;;;4081780;29;20554;-81
2021/08/28 02:21:27;;;;;;;5.00;4.50;;;16.40;98.30;;;;;;4096727;28;21031;-81
2021/08/28 02:23:38;;;;;;;5.13;4.70;;;16.30;98.30;;;;;;4083126;28;20490;-81
2021/08/28 02:25:49;;;;;;;6.97;5.47;;;16.30;98.30;;;;;;4090922;29;20457;-81
2021/08/28 02:27:58;;;;;;;5.10;4.60;;;16.40;98.30;;;;;;4092585;29;20532;-80
2021/08/28 02:30:06;;;;;;;5.20;4.60;;;16.40;98.30;;;;;;4089473;28;20479;-81
2021/08/28 02:32:09;;;;;;;5.60;5.10;;;16.50;98.30;;;;;;4090220;28;20501;-81
2021/08/28 02:34:14;;;;;;;5.37;4.87;;;16.50;98.30;;;;;;4083084;29;20510;-81
2021/08/28 02:36:19;;;;;;;5.37;4.23;;;16.50;98.30;;;;;;4090666;29;20505;-80
2021/08/28 02:38:23;;;;;;;5.67;5.07;;;16.60;98.30;;;;;;4079822;28;20470;-81
2021/08/28 02:40:28;;;;;;;6.20;4.80;;;16.70;98.30;;;;;;4092691;29;20478;-81
2021/08/28 02:42:31;;;;;;;4.60;4.20;;;16.70;98.30;;;;;;4092745;29;20497;-81
2021/08/28 02:44:38;;;;;;;4.90;4.50;;;16.70;98.30;;;;;;4089511;28;21019;-81
2021/08/28 02:46:42;;;;;;;5.00;4.13;;;16.70;98.30;;;;;;4091352;29;20478;-81
2021/08/28 02:48:47;;;;;;;4.90;4.40;;;16.70;98.30;;;;;;4084165;28;20836;-80
2021/08/28 02:50:53;;;;;;;4.60;4.20;;;16.70;98.30;;;;;;4088096;29;20573;-81
2021/08/28 02:52:58;;;;;;;4.73;4.27;;;16.70;98.30;;;;;;4085061;28;20512;-81
2021/08/28 02:55:03;;;;;;;5.27;4.77;;;16.80;98.30;;;;;;4090877;29;20465;-81
2021/08/28 02:57:07;;;;;;;5.30;4.43;;;16.80;98.30;;;;;;4090872;29;20465;-81
2021/08/28 02:59:11;;;;;;;4.80;4.30;;;16.80;98.30;;;;;;4083698;29;20476;-81
2021/08/28 03:01:14;;;;;;;5.37;4.27;;;16.80;98.30;;;;;;4091232;28;20545;-81
2021/08/28 03:03:19;;;;;;;4.83;4.43;;;16.80;98.30;;;;;;4086754;28;20580;-82
2021/08/28 03:05:23;;;;;;;6.40;5.80;;;16.70;98.30;;;;;;4092347;28;20469;-80
2021/08/28 03:07:27;;;;;;;5.93;5.10;;;16.70;98.30;;;;;;4094986;29;20479;-80
2021/08/28 03:09:32;;;;;;;4.77;4.37;;;16.70;98.30;;;;;;4087468;28;20476;-80
2021/08/28 03:11:35;;;;;;;5.10;4.53;;;16.70;98.30;;;;;;4083242;28;20484;-80
2021/08/28 03:13:38;;;;;;;4.60;4.20;;;16.70;98.30;;;;;;4088583;28;20497;-80
2021/08/28 03:15:43;;;;;;;4.23;3.80;;;16.70;98.30;;;;;;4088251;29;20852;-80
2021/08/28 03:17:47;;;;;;;5.07;3.93;;;16.60;98.30;;;;;;4089302;29;20480;-80
2021/08/28 03:19:52;;;;;;;3.70;3.40;;;16.60;98.30;;;;;;4086180;28;20468;-80
2021/08/28 03:21:56;;;;;;;3.67;3.37;;;16.60;98.30;;;;;;4088501;28;20482;-81
2021/08/28 03:24:02;;;;;;;4.80;3.90;;;16.50;98.30;;;;;;4090949;29;20490;-81
2021/08/28 03:26:22;;;;;;;4.70;3.83;;;16.50;98.30;;;;;;4083294;28;20459;-80
2021/08/28 03:28:27;;;;;;;4.50;3.67;;;16.50;98.30;;;;;;4090990;28;20513;-81
2021/08/28 03:30:30;;;;;;;4.50;3.53;;;16.50;98.30;;;;;;4080978;29;20478;-81
2021/08/28 03:32:33;;;;;;;4.10;3.70;;;16.60;98.30;;;;;;4075621;28;20471;-81
2021/08/28 03:34:37;;;;;;;4.17;3.80;;;16.60;98.30;;;;;;4084728;28;20495;-80
2021/08/28 03:36:40;;;;;;;4.43;4.03;;;16.60;98.30;;;;;;4088562;28;20828;-81
2021/08/28 03:38:44;;;;;;;3.80;3.50;;;16.60;98.30;;;;;;4089457;29;20844;-80
2021/08/28 03:40:48;;;;;;;4.50;3.67;;;16.60;98.30;;;;;;4075546;29;21203;-80
2021/08/28 03:42:51;;;;;;;4.10;3.70;;;16.60;98.30;;;;;;4077737;29;20492;-81
2021/08/28 03:44:58;;;;;;;6.33;3.70;;;16.60;98.30;;;;;;4087932;29;20908;-81
2021/08/28 03:47:01;;;;;;;4.13;3.70;;;16.60;98.30;;;;;;4085715;29;20504;-81
2021/08/28 03:49:04;;;;;;;3.97;3.67;;;16.60;98.30;;;;;;4085431;28;20572;-81
2021/08/28 03:51:08;;;;;;;3.83;3.53;;;16.60;98.30;;;;;;4094057;29;20540;-81
2021/08/28 03:53:11;;;;;;;4.50;3.80;;;16.60;98.30;;;;;;4091602;28;20482;-81
2021/08/28 03:55:14;;;;;;;4.03;3.60;;;16.60;98.30;;;;;;4087265;29;20576;-81
2021/08/28 03:57:18;;;;;;;5.77;3.90;;;16.60;98.30;;;;;;4092889;29;20873;-81
2021/08/28 03:59:21;;;;;;;4.23;3.83;;;16.60;98.30;;;;;;4089071;29;20466;-81
2021/08/28 04:01:24;;;;;;;3.93;3.53;;;16.60;98.30;;;;;;4093908;28;20473;-80
2021/08/28 04:03:27;;;;;;;4.90;4.03;;;16.60;98.30;;;;;;4087295;28;20919;-80
2021/08/28 04:05:30;;;;;;;4.23;3.83;;;16.60;98.30;;;;;;4078369;28;20486;-81
2021/08/28 04:07:38;;;;;;;4.60;3.23;;;16.60;98.30;;;;;;4084639;29;20497;-80
2021/08/28 04:09:41;;;;;;;4.63;3.30;;;16.60;98.30;;;;;;4086190;28;20832;-81
2021/08/28 04:11:44;;;;;;;4.20;3.90;;;16.60;98.30;;;;;;4087831;28;20478;-80
2021/08/28 04:13:48;;;;;;;5.53;3.23;;;16.60;98.30;;;;;;4088221;29;20534;-80
2021/08/28 04:15:52;;;;;;;3.70;3.40;;;16.60;98.30;;;;;;4092813;28;20465;-80
2021/08/28 04:17:55;;;;;;;4.80;3.73;;;16.60;98.30;;;;;;4087528;28;20517;-81
2021/08/28 04:19:58;;;;;;;3.70;3.40;;;16.60;98.30;;;;;;4079774;28;20466;-81
2021/08/28 04:22:01;;;;;;;4.07;3.77;;;16.60;98.30;;;;;;4084151;29;20482;-81
2021/08/28 04:24:05;;;;;;;3.97;3.67;;;16.50;98.30;;;;;;4087810;29;20513;-80
2021/08/28 04:26:08;;;;;;;3.80;3.50;;;16.50;98.30;;;;;;4080330;29;20495;-81
2021/08/28 04:28:10;;;;;;;4.03;3.70;;;16.50;98.30;;;;;;4094135;29;20469;-81
2021/08/28 04:30:15;;;;;;;4.30;3.90;;;16.50;98.30;;;;;;4092937;28;20523;-81
2021/08/28 04:32:18;;;;;;;5.37;3.87;;;16.50;98.30;;;;;;4087012;29;20496;-81
2021/08/28 04:34:21;;;;;;;4.50;4.10;;;16.60;98.30;;;;;;4086442;28;20501;-81
2021/08/28 04:36:23;;;;;;;5.70;4.53;;;16.60;98.30;;;;;;4085131;29;21204;-81
2021/08/28 04:38:26;;;;;;;5.10;4.20;;;16.60;98.30;;;;;;4084952;29;20481;-81
2021/08/28 04:40:29;;;;;;;5.07;4.57;;;16.60;98.30;;;;;;4091903;28;20465;-81
2021/08/28 04:42:32;;;;;;;5.00;4.50;;;16.70;98.30;;;;;;4087277;28;20556;-81
2021/08/28 04:44:35;;;;;;;5.00;4.50;;;16.60;98.30;;;;;;4085799;28;20504;-81
2021/08/28 04:46:39;;;;;;;6.70;4.97;;;16.70;98.30;;;;;;4087443;29;20473;-81
2021/08/28 04:48:43;;;;;;;6.50;5.40;;;16.70;98.30;;;;;;4080432;29;21074;-81
2021/08/28 04:50:46;;;;;;;5.70;5.20;;;16.70;98.30;;;;;;4087775;29;20486;-81
2021/08/28 04:52:49;;;;;;;7.00;5.03;;;16.70;98.30;;;;;;4092667;29;20473;-81
2021/08/28 04:54:52;;;;;;;7.00;5.53;;;16.70;98.30;;;;;;4083384;29;20509;-81
2021/08/28 04:56:54;;;;;;;6.87;5.60;;;16.70;98.30;;;;;;4093132;28;20485;-80
2021/08/28 04:58:57;;;;;;;7.07;6.37;;;16.70;98.30;;;;;;4093264;28;20473;-81
2021/08/28 05:01:00;;;;;;;6.60;5.43;;;16.80;98.30;;;;;;4091303;29;20488;-81
2021/08/28 05:03:05;;;;;;;7.47;6.47;;;16.80;98.30;;;;;;4086979;28;20969;-81
2021/08/28 05:05:09;;;;;;;7.50;6.37;;;16.70;98.30;;;;;;4087761;28;20934;-81
2021/08/28 05:07:12;;;;;;;7.27;6.20;;;16.70;98.30;;;;;;4084748;29;20471;-81
2021/08/28 05:09:17;;;;;;;7.90;7.10;;;16.70;98.30;;;;;;4092075;29;20475;-81
2021/08/28 05:11:20;;;;;;;7.50;6.80;;;16.70;98.30;;;;;;4092481;28;20478;-80
2021/08/28 05:13:23;;;;;;;8.17;6.87;;;16.60;98.30;;;;;;4085815;28;20544;-80
2021/08/28 05:15:25;;;;;;;8.07;7.27;;;16.70;98.30;;;;;;4090246;29;20837;-81
2021/08/28 05:17:28;;;;;;;7.90;7.10;;;16.70;98.30;;;;;;4091015;29;20549;-81
2021/08/28 05:19:33;;;;;;;9.73;8.40;;;16.70;98.30;;;;;;4089132;28;20954;-80
2021/08/28 05:21:36;;;;;;;12.70;8.80;;;16.70;98.30;;;;;;4090699;28;20473;-80
2021/08/28 05:23:39;;;;;;;9.07;8.20;;;16.70;98.30;;;;;;4073826;29;20572;-80
2021/08/28 05:25:42;;;;;;;9.57;8.30;;;16.70;98.30;;;;;;4095464;28;20468;-81
2021/08/28 05:27:45;;;;;;;11.60;9.50;;;16.70;98.30;;;;;;4094729;28;20480;-81
2021/08/28 05:29:48;;;;;;;9.93;8.90;;;16.70;98.30;;;;;;4095279;28;20481;-81
2021/08/28 05:31:50;;;;;;;12.90;10.80;;;16.70;98.30;;;;;;4095406;28;20487;-81
2021/08/28 05:33:53;;;;;;;11.73;10.00;;;16.70;98.30;;;;;;4095117;28;20940;-80
2021/08/28 05:35:57;;;;;;;12.73;10.70;;;16.70;98.30;;;;;;4097353;29;20466;-80
2021/08/28 05:38:00;;;;;;;13.73;12.03;;;16.70;98.30;;;;;;4091638;28;20509;-80
2021/08/28 05:40:06;;;;;;;13.93;11.40;;;16.70;98.30;;;;;;4095256;29;20473;-81
2021/08/28 05:42:09;;;;;;;30.23;24.53;;;16.70;98.30;;;;;;4091290;28;20499;-80
2021/08/28 05:44:12;;;;;;;65.20;48.93;;;16.80;98.30;;;;;;4094309;29;20497;-80
2021/08/28 05:46:15;;;;;;;35.50;27.20;;;16.90;98.30;;;;;;4090138;28;20495;-81
2021/08/28 05:48:18;;;;;;;26.97;22.20;;;16.90;98.30;;;;;;4093554;28;20895;-80
2021/08/28 05:50:21;;;;;;;29.03;21.03;;;17.00;98.30;;;;;;4094923;29;20523;-80
2021/08/28 05:52:26;;;;;;;32.00;23.80;;;17.00;98.30;;;;;;4092608;29;20517;-81
2021/08/28 05:54:29;;;;;;;24.80;20.00;;;17.00;98.30;;;;;;4085061;29;20500;-80
2021/08/28 05:56:33;;;;;;;23.93;20.33;;;17.10;98.30;;;;;;4089630;28;20478;-80
2021/08/28 05:58:36;;;;;;;22.17;19.20;;;17.00;98.30;;;;;;4090862;28;20470;-80
2021/08/28 06:00:39;;;;;;;32.70;25.90;;;17.00;98.30;;;;;;4089873;29;20474;-81
2021/08/28 06:02:42;;;;;;;36.40;29.43;;;17.00;98.30;;;;;;4081605;29;20471;-81
2021/08/28 06:04:45;;;;;;;59.13;39.57;;;17.10;98.30;;;;;;4093352;28;20501;-80
2021/08/28 06:06:48;;;;;;;21.30;16.17;;;17.10;98.30;;;;;;4090967;28;20470;-80
2021/08/28 06:08:52;;;;;;;15.00;12.27;;;17.10;98.30;;;;;;4097063;28;20555;-81
2021/08/28 06:10:55;;;;;;;12.67;10.63;;;17.00;98.30;;;;;;4091307;28;20484;-81
2021/08/28 06:13:00;;;;;;;14.30;11.20;;;17.00;98.30;;;;;;4090173;28;20477;-81
2021/08/28 06:15:05;;;;;;;12.27;10.80;;;16.90;98.30;;;;;;4078442;29;20985;-81
2021/08/28 06:17:08;;;;;;;12.00;10.07;;;16.80;98.30;;;;;;4071281;29;20566;-81
2021/08/28 06:19:11;;;;;;;15.20;11.27;;;16.90;98.30;;;;;;4085680;29;20474;-81
2021/08/28 06:21:14;;;;;;;13.00;10.23;;;16.90;98.30;;;;;;4088343;29;20474;-81
2021/08/28 06:23:17;;;;;;;22.70;12.73;;;17.00;98.30;;;;;;4081837;28;21290;-81
2021/08/28 06:25:21;;;;;;;35.90;30.20;;;17.00;98.30;;;;;;4074696;29;21532;-81
2021/08/28 06:27:24;;;;;;;30.97;23.20;;;17.10;98.30;;;;;;4091534;29;20469;-81
2021/08/28 06:29:27;;;;;;;44.73;33.70;;;17.20;98.30;;;;;;4086270;29;20500;-80
2021/08/28 06:31:30;;;;;;;45.10;34.17;;;17.20;98.30;;;;;;4075391;29;20470;-81
2021/08/28 06:33:33;;;;;;;23.10;17.40;;;17.30;98.30;;;;;;4084721;29;21089;-81
2021/08/28 06:35:36;;;;;;;14.67;13.17;;;17.30;98.30;;;;;;4081059;28;20463;-80
2021/08/28 06:37:39;;;;;;;15.93;13.57;;;17.40;98.30;;;;;;4085397;28;20888;-81
2021/08/28 06:39:42;;;;;;;15.63;14.03;;;17.40;98.30;;;;;;4094590;28;20957;-81
2021/08/28 06:41:50;;;;;;;18.30;16.50;;;17.40;98.30;;;;;;4085082;29;20553;-82
2021/08/28 06:43:54;;;;;;;37.33;28.23;;;17.40;98.30;;;;;;4088129;28;20502;-82
2021/08/28 06:45:58;;;;;;;93.67;62.90;;;17.40;98.30;;;;;;4090943;28;20908;-82
2021/08/28 06:48:03;;;;;;;69.70;52.43;;;17.60;98.30;;;;;;4076511;29;20507;-82
2021/08/28 06:50:09;;;;;;;43.70;34.10;;;17.60;98.30;;;;;;4071899;28;20474;-82
2021/08/28 06:52:12;;;;;;;21.80;18.30;;;17.70;98.30;;;;;;4084369;28;20497;-82
2021/08/28 06:54:16;;;;;;;18.33;16.33;;;17.60;98.30;;;;;;4084545;28;20497;-83
2021/08/28 06:56:20;;;;;;;16.80;14.80;;;17.60;98.30;;;;;;4090277;28;20488;-82
2021/08/28 06:58:30;;;;;;;17.90;12.77;;;17.50;98.30;;;;;;4091288;28;21283;-82
2021/08/28 07:00:33;;;;;;;12.70;11.23;;;17.50;98.30;;;;;;4087773;28;20567;-81
2021/08/28 07:02:40;;;;;;;15.83;11.00;;;17.40;98.30;;;;;;4085788;28;20478;-82
2021/08/28 07:04:44;;;;;;;13.77;11.00;;;17.40;98.30;;;;;;4088012;28;20547;-82
2021/08/28 07:06:47;;;;;;;16.50;11.50;;;17.40;98.30;;;;;;4088696;29;20552;-82
2021/08/28 07:08:50;;;;;;;11.47;9.63;;;17.40;98.30;;;;;;4088878;29;20476;-83
2021/08/28 07:10:54;;;;;;;11.53;9.27;;;17.40;98.30;;;;;;4089887;29;20570;-82
2021/08/28 07:12:57;;;;;;;11.53;9.43;;;17.40;98.30;;;;;;4089927;28;20458;-82
2021/08/28 07:15:01;;;;;;;10.70;9.43;;;17.40;98.30;;;;;;4088847;29;20923;-82
2021/08/28 07:17:04;;;;;;;12.50;9.57;;;17.40;98.30;;;;;;4088787;28;20505;-82
2021/08/28 07:19:07;;;;;;;11.67;9.27;;;17.40;98.30;;;;;;4088793;29;20473;-82
2021/08/28 07:21:10;;;;;;;9.93;8.70;;;17.40;98.30;;;;;;4091158;29;20487;-82
2021/08/28 07:23:13;;;;;;;10.80;8.27;;;17.40;98.30;;;;;;4089677;28;20869;-82
2021/08/28 07:25:16;;;;;;;11.47;9.13;;;17.40;98.30;;;;;;4090051;28;20493;-82
2021/08/28 07:27:23;;;;;;;15.30;11.20;;;17.40;98.30;;;;;;4090434;29;20572;-82
2021/08/28 07:29:26;;;;;;;21.20;16.30;;;17.50;98.30;;;;;;4089325;28;20532;-83
2021/08/28 07:31:30;;;;;;;14.37;12.13;;;17.60;98.30;;;;;;4089086;29;20473;-83
2021/08/28 07:33:33;;;;;;;10.53;8.87;;;17.60;98.30;;;;;;4088824;28;20511;-83
2021/08/28 07:35:37;;;;;;;8.97;7.47;;;17.60;98.30;;;;;;4091164;28;20479;-83
2021/08/28 07:37:40;;;;;;;10.30;7.00;;;17.70;98.30;;;;;;4090403;28;20473;-83
2021/08/28 07:39:43;;;;;;;8.67;6.70;;;17.70;98.30;;;;;;4089924;28;20474;-82
2021/08/28 07:41:46;;;;;;;9.20;6.97;;;17.70;98.30;;;;;;4089671;28;20470;-82
2021/08/28 07:43:49;;;;;;;10.27;8.37;;;17.80;98.30;;;;;;4088226;28;20497;-83
2021/08/28 07:45:52;;;;;;;9.23;8.20;;;17.80;98.30;;;;;;4088658;29;20491;-82
2021/08/28 07:47:56;;;;;;;11.13;8.20;;;17.90;98.30;;;;;;4088748;28;20599;-82
2021/08/28 07:50:00;;;;;;;8.90;7.67;;;17.90;98.30;;;;;;4090055;28;20516;-82
2021/08/28 07:52:05;;;;;;;13.23;11.03;;;17.90;98.30;;;;;;4088355;28;20466;-83
2021/08/28 07:54:17;;;;;;;22.10;16.80;;;18.00;98.30;;;;;;4089261;28;20987;-83
2021/08/28 07:56:22;;;;;;;14.60;11.63;;;18.00;98.30;;;;;;4087819;28;20466;-83
2021/08/28 07:58:25;;;;;;;12.60;9.87;;;18.00;98.30;;;;;;4087237;28;20474;-83
2021/08/28 08:00:31;;;;;;;11.83;9.47;;;18.10;98.30;;;;;;4089977;28;20526;-84
2021/08/28 08:02:36;;;;;;;14.57;10.63;;;18.10;98.30;;;;;;4090265;28;20856;-84
2021/08/28 08:04:41;;;;;;;11.07;8.77;;;18.10;98.30;;;;;;4088829;28;21268;-84
2021/08/28 08:06:44;;;;;;;9.97;8.50;;;18.10;98.30;;;;;;4088194;28;20473;-84
2021/08/28 08:08:47;;;;;;;10.13;8.57;;;18.20;98.30;;;;;;4088723;29;20829;-83
2021/08/28 08:10:50;;;;;;;11.57;9.80;;;18.20;98.30;;;;;;4087915;28;20487;-83
2021/08/28 08:12:53;;;;;;;11.47;10.03;;;18.20;98.30;;;;;;4089507;28;20844;-83
2021/08/28 08:14:56;;;;;;;13.57;9.60;;;18.20;98.30;;;;;;4088430;29;20473;-83
2021/08/28 08:16:59;;;;;;;9.80;7.77;;;18.30;98.30;;;;;;4089815;28;20479;-83
2021/08/28 08:19:02;;;;;;;8.33;7.47;;;18.20;98.30;;;;;;4088405;28;20569;-83
2021/08/28 08:21:06;;;;;;;13.07;10.93;;;18.20;98.30;;;;;;4088694;28;20473;-84
2021/08/28 08:23:12;;;;;;;23.87;16.93;;;18.10;98.30;;;;;;4088646;28;20466;-83
2021/08/28 08:25:15;;;;;;;22.40;18.07;;;18.10;98.30;;;;;;4088964;29;20878;-83
2021/08/28 08:27:18;;;;;;;29.20;21.37;;;18.10;98.30;;;;;;4089107;29;20481;-83
2021/08/28 08:29:21;;;;;;;13.40;9.83;;;18.10;98.30;;;;;;4089059;28;20569;-83
2021/08/28 08:31:24;;;;;;;10.70;8.90;;;18.00;98.30;;;;;;4091095;28;20951;-84
2021/08/28 08:33:27;;;;;;;12.00;10.00;;;18.00;98.30;;;;;;4088830;28;20510;-84
2021/08/28 08:35:30;;;;;;;15.97;11.53;;;18.00;98.30;;;;;;4089454;28;20478;-83
2021/08/28 08:37:34;;;;;;;16.13;14.00;;;18.00;98.30;;;;;;4089475;29;20512;-83
2021/08/28 08:39:37;;;;;;;9.73;8.43;;;18.00;98.30;;;;;;4088696;28;20528;-84
2021/08/28 08:41:44;;;;;;;7.67;6.10;;;18.00;98.30;;;;;;4088569;29;20477;-84
2021/08/28 08:43:48;;;;;;;8.37;7.10;;;18.00;98.30;;;;;;4087620;29;20490;-83
2021/08/28 08:45:52;;;;;;;10.27;6.23;;;18.00;98.30;;;;;;4091573;29;20565;-85
2021/08/28 08:47:59;;;;;;;9.23;7.50;;;18.10;98.30;;;;;;4086716;28;20477;-84
2021/08/28 08:50:04;;;;;;;9.97;7.73;;;18.20;98.30;;;;;;4087618;29;20957;-84
2021/08/28 08:52:08;;;;;;;9.40;6.60;;;18.30;98.30;;;;;;4086366;29;21069;-85
2021/08/28 08:54:12;;;;;;;5.67;5.10;;;18.40;98.30;;;;;;4087430;28;20500;-84
2021/08/28 08:56:16;;;;;;;6.30;4.80;;;18.50;98.30;;;;;;4078480;28;20841;-85
2021/08/28 08:58:19;;;;;;;5.60;4.60;;;18.50;98.30;;;;;;4074968;28;20461;-84
2021/08/28 09:00:23;;;;;;;5.00;4.50;;;18.50;98.30;;;;;;4091075;28;20561;-84
2021/08/28 09:02:26;;;;;;;5.43;4.03;;;18.50;98.30;;;;;;4074748;29;20486;-83
2021/08/28 09:04:30;;;;;;;6.60;3.57;;;18.50;98.30;;;;;;4079356;29;20490;-83
2021/08/28 09:06:33;;;;;;;3.80;3.50;;;18.60;98.30;;;;;;4091070;28;20519;-83
2021/08/28 09:08:36;;;;;;;4.77;3.53;;;18.50;98.30;;;;;;4078396;28;20466;-83
2021/08/28 09:10:40;;;;;;;3.77;3.37;;;18.60;98.30;;;;;;4086039;29;20477;-83
2021/08/28 09:12:43;;;;;;;3.40;3.10;;;18.70;98.30;;;;;;4086038;28;20553;-83
2021/08/28 09:14:58;;;;;;;5.43;3.27;;;18.70;98.30;;;;;;4092133;28;20866;-84
2021/08/28 09:17:15;;;;;;;28.33;21.47;;;18.70;98.30;;;;;;4084880;28;20945;-85
2021/08/28 09:19:18;;;;;;;16.07;10.47;;;18.50;98.30;;;;;;4090905;28;20504;-83
2021/08/28 09:21:23;;;;;;;7.03;5.37;;;18.60;98.30;;;;;;4088223;29;21079;-83
2021/08/28 09:23:26;;;;;;;4.90;4.37;;;18.60;98.30;;;;;;4092097;28;20584;-83
2021/08/28 09:25:29;;;;;;;4.03;3.63;;;18.60;98.30;;;;;;4082448;29;20485;-83
2021/08/28 09:27:36;;;;;;;4.80;3.53;;;18.30;98.30;;;;;;4090309;28;20496;-83
2021/08/28 09:29:43;;;;;;;5.50;4.40;;;18.30;98.30;;;;;;4093136;29;20488;-82
2021/08/28 09:31:48;;;;;;;3.93;3.53;;;18.20;98.30;;;;;;4085950;29;20553;-82
2021/08/28 09:34:12;;;;;;;3.83;3.53;;;18.00;98.30;;;;;;4089733;29;21025;-83
2021/08/28 09:36:17;;;;;;;3.80;3.50;;;18.00;98.30;;;;;;4080280;28;20544;-82
2021/08/28 09:38:22;;;;;;;3.90;3.50;;;18.00;98.30;;;;;;4091748;29;20469;-83
2021/08/28 09:40:27;;;;;;;3.50;3.03;;;18.00;98.30;;;;;;4088936;29;20505;-82
2021/08/28 09:42:30;;;;;;;5.20;4.27;;;18.00;98.30;;;;;;4087935;29;20901;-82
2021/08/28 09:44:38;;;;;;;3.50;3.20;;;18.00;98.30;;;;;;4082374;29;20509;-83
2021/08/28 09:46:41;;;;;;;3.60;3.30;;;18.00;98.30;;;;;;4088668;28;20590;-82
2021/08/28 09:48:58;;;;;;;3.83;3.53;;;18.10;98.30;;;;;;4092691;28;20478;-82
2021/08/28 09:51:01;;;;;;;4.03;3.70;;;18.10;98.30;;;;;;4087154;28;20484;-81
2021/08/28 09:53:21;;;;;;;6.93;4.03;;;18.10;98.30;;;;;;4090366;28;20492;-80
2021/08/28 09:55:24;;;;;;;5.00;4.43;;;18.10;98.30;;;;;;4079407;29;20478;-81
2021/08/28 09:57:28;;;;;;;4.93;4.47;;;18.10;98.30;;;;;;4088897;28;20844;-81
2021/08/28 09:59:31;;;;;;;4.80;4.30;;;18.10;98.30;;;;;;4083160;29;20501;-81
2021/08/28 10:01:37;;;;;;;7.40;5.83;;;18.20;98.30;;;;;;4092934;28;21155;-81
2021/08/28 10:03:41;;;;;;;4.20;3.80;;;18.30;98.30;;;;;;4082704;29;20496;-81
2021/08/28 10:05:46;;;;;;;3.97;3.67;;;18.30;98.30;;;;;;4090917;28;20473;-82
2021/08/28 10:07:49;;;;;;;4.37;3.87;;;18.30;98.30;;;;;;4091141;29;20489;-82
2021/08/28 10:09:56;;;;;;;5.17;4.20;;;18.40;98.30;;;;;;4083303;28;21200;-82
2021/08/28 10:12:05;;;;;;;4.40;4.00;;;18.50;98.30;;;;;;4088037;29;20484;-82
2021/08/28 10:14:10;;;;;;;3.90;3.40;;;18.60;98.30;;;;;;4082253;29;20494;-82
2021/08/28 10:16:14;;;;;;;4.00;3.47;;;18.60;98.30;;;;;;4085137;28;20466;-81
2021/08/28 10:18:22;;;;;;;3.60;3.30;;;18.60;98.30;;;;;;4089874;28;20840;-81
2021/08/28 10:20:27;;;;;;;5.80;3.60;;;18.60;98.30;;;;;;4087396;29;20465;-82
2021/08/28 10:22:31;;;;;;;3.60;3.30;;;18.50;98.30;;;;;;4086942;29;20473;-81
2021/08/28 10:24:38;;;;;;;3.67;3.30;;;18.40;98.30;;;;;;4098116;28;20501;-81
2021/08/28 10:26:42;;;;;;;4.87;3.50;;;18.50;98.30;;;;;;4097244;28;20910;-82
2021/08/28 10:28:46;;;;;;;4.10;3.70;;;18.60;98.30;;;;;;4089353;28;20477;-82
2021/08/28 10:30:49;;;;;;;3.40;3.10;;;18.60;98.30;;;;;;4086924;29;20481;-84
2021/08/28 10:32:53;;;;;;;4.30;3.33;;;18.70;98.30;;;;;;4090514;28;20607;-82
2021/08/28 10:34:58;;;;;;;4.50;3.50;;;18.70;98.30;;;;;;4091841;29;20505;-81
2021/08/28 10:37:01;;;;;;;4.30;3.50;;;18.60;98.30;;;;;;4088810;29;20473;-82
2021/08/28 10:39:06;;;;;;;3.60;3.30;;;18.60;98.30;;;;;;4089657;29;20833;-81
2021/08/28 10:41:11;;;;;;;3.60;3.30;;;18.50;98.30;;;;;;4091074;29;20492;-80
2021/08/28 10:43:14;;;;;;;5.20;3.30;;;18.30;98.30;;;;;;4098873;29;20494;-81
2021/08/28 10:45:24;;;;;;;3.80;3.30;;;18.30;98.30;;;;;;4099494;29;20992;-81